sensor_id;sensor_type;location;lat;lon;timestamp;temperature;humidity
31735;DHT22;18313;48.518;9.124;2022-09-01T00:00:01;14.80;99.90
31735;DHT22;18313;48.518;9.124;2022-09-01T00:02:29;14.70;99.90
31735;DHT22;18313;48.518;9.124;2022-09-01T00:04:56;14.80;99.90
31735;DHT22;18313;48.518;9.124;2022-09-01T00:07:26;14.80;99.90
31735;DHT22;18313;48.518;9.124;2022-09-01T00:09:57;14.70;99.90
31735;DHT22;18313;48.518;9.124;2022-09-01T00:12:24;14.90;99.90
31735;DHT22;18313;48.518;9.124;2022-09-01T00:14:52;14.70;99.90
31735;DHT22;18313;48.518;9.124;2022-09-01T00:17:19;14.80;99.90
31735;DHT22;18313;48.518;9.124;2022-09-01T00:19:46;14.70;99.90
31735;DHT22;18313;48.518;9.124;2022-09-01T00:22:13;14.60;99.90
31735;DHT22;18313;48.518;9.124;2022-09-01T00:24:41;14.60;99.90
31735;DHT22;18313;48.518;9.124;2022-09-01T00:27:10;14.50;99.90
31735;DHT22;18313;48.518;9.124;2022-09-01T00:29:38;14.50;99.90
31735;DHT22;18313;48.518;9.124;2022-09-01T00:32:10;14.40;99.90
31735;DHT22;18313;48.518;9.124;2022-09-01T00:34:38;14.40;99.90
31735;DHT22;18313;48.518;9.124;2022-09-01T00:37:05;14.40;99.90
31735;DHT22;18313;48.518;9.124;2022-09-01T00:39:32;14.40;99.90
31735;DHT22;18313;48.518;9.124;2022-09-01T00:42:00;14.50;99.90
31735;DHT22;18313;48.518;9.124;2022-09-01T00:44:27;14.30;99.90
31735;DHT22;18313;48.518;9.124;2022-09-01T00:46:57;14.30;99.90
31735;DHT22;18313;48.518;9.124;2022-09-01T00:49:34;14.20;99.90
31735;DHT22;18313;48.518;9.124;2022-09-01T00:52:12;14.20;99.90
31735;DHT22;18313;48.518;9.124;2022-09-01T00:54:43;14.20;99.90
31735;DHT22;18313;48.518;9.124;2022-09-01T00:57:11;14.40;99.90
31735;DHT22;18313;48.518;9.124;2022-09-01T00:59:58;14.40;99.90
31735;DHT22;18313;48.518;9.124;2022-09-01T01:02:26;14.30;99.90
31735;DHT22;18313;48.518;9.124;2022-09-01T01:04:53;14.30;99.90
31735;DHT22;18313;48.518;9.124;2022-09-01T01:07:22;14.20;99.90
31735;DHT22;18313;48.518;9.124;2022-09-01T01:09:50;14.20;99.90
31735;DHT22;18313;48.518;9.124;2022-09-01T01:12:18;14.20;99.90
31735;DHT22;18313;48.518;9.124;2022-09-01T01:14:47;14.20;99.90
31735;DHT22;18313;48.518;9.124;2022-09-01T01:17:19;14.20;99.90
31735;DHT22;18313;48.518;9.124;2022-09-01T01:19:55;14.20;99.90
31735;DHT22;18313;48.518;9.124;2022-09-01T01:25:33;14.40;99.90
31735;DHT22;18313;48.518;9.124;2022-09-01T01:28:27;14.40;99.90
31735;DHT22;18313;48.518;9.124;2022-09-01T01:31:00;14.30;99.90
31735;DHT22;18313;48.518;9.124;2022-09-01T01:33:35;14.30;99.90
31735;DHT22;18313;48.518;9.124;2022-09-01T01:36:25;14.20;99.90
31735;DHT22;18313;48.518;9.124;2022-09-01T01:39:01;14.30;99.90
31735;DHT22;18313;48.518;9.124;2022-09-01T01:41:31;14.30;99.90
31735;DHT22;18313;48.518;9.124;2022-09-01T01:44:00;14.30;99.90
31735;DHT22;18313;48.518;9.124;2022-09-01T01:46:32;14.40;99.90
31735;DHT22;18313;48.518;9.124;2022-09-01T01:49:00;14.40;99.90
31735;DHT22;18313;48.518;9.124;2022-09-01T01:51:30;14.30;99.90
31735;DHT22;18313;48.518;9.124;2022-09-01T01:53:59;14.20;99.90
31735;DHT22;18313;48.518;9.124;2022-09-01T01:56:32;14.20;99.90
31735;DHT22;18313;48.518;9.124;2022-09-01T01:59:01;14.30;99.90
31735;DHT22;18313;48.518;9.124;2022-09-01T02:01:32;14.30;99.90
31735;DHT22;18313;48.518;9.124;2022-09-01T02:04:00;14.20;99.90
31735;DHT22;18313;48.518;9.124;2022-09-01T02:06:33;14.20;99.90
31735;DHT22;18313;48.518;9.124;2022-09-01T02:09:00;14.10;99.90
31735;DHT22;18313;48.518;9.124;2022-09-01T02:11:30;14.00;99.90
31735;DHT22;18313;48.518;9.124;2022-09-01T02:14:06;14.10;99.90
31735;DHT22;18313;48.518;9.124;2022-09-01T02:16:34;14.10;99.90
31735;DHT22;18313;48.518;9.124;2022-09-01T02:19:06;14.10;99.90
31735;DHT22;18313;48.518;9.124;2022-09-01T02:21:34;14.00;99.90
31735;DHT22;18313;48.518;9.124;2022-09-01T02:24:04;13.90;99.90
31735;DHT22;18313;48.518;9.124;2022-09-01T02:26:37;13.80;99.90
31735;DHT22;18313;48.518;9.124;2022-09-01T02:29:11;13.80;99.90
31735;DHT22;18313;48.518;9.124;2022-09-01T02:31:45;13.80;99.90
31735;DHT22;18313;48.518;9.124;2022-09-01T02:34:13;13.80;99.90
31735;DHT22;18313;48.518;9.124;2022-09-01T02:36:43;13.70;99.90
31735;DHT22;18313;48.518;9.124;2022-09-01T02:39:28;13.70;99.90
31735;DHT22;18313;48.518;9.124;2022-09-01T02:41:56;13.80;99.90
31735;DHT22;18313;48.518;9.124;2022-09-01T02:44:23;13.80;99.90
31735;DHT22;18313;48.518;9.124;2022-09-01T02:46:50;13.80;99.90
31735;DHT22;18313;48.518;9.124;2022-09-01T02:49:19;13.80;99.90
31735;DHT22;18313;48.518;9.124;2022-09-01T02:51:51;13.80;99.90
31735;DHT22;18313;48.518;9.124;2022-09-01T02:54:24;13.80;99.90
31735;DHT22;18313;48.518;9.124;2022-09-01T02:56:52;13.90;99.90
31735;DHT22;18313;48.518;9.124;2022-09-01T02:59:21;13.90;99.90
31735;DHT22;18313;48.518;9.124;2022-09-01T03:01:50;13.90;99.90
31735;DHT22;18313;48.518;9.124;2022-09-01T03:04:18;13.80;99.90
31735;DHT22;18313;48.518;9.124;2022-09-01T03:06:46;13.80;99.90
31735;DHT22;18313;48.518;9.124;2022-09-01T03:09:15;13.70;99.90
31735;DHT22;18313;48.518;9.124;2022-09-01T03:11:46;13.70;99.90
31735;DHT22;18313;48.518;9.124;2022-09-01T03:14:14;13.70;99.90
31735;DHT22;18313;48.518;9.124;2022-09-01T03:16:41;13.70;99.90
31735;DHT22;18313;48.518;9.124;2022-09-01T03:19:10;13.70;99.90
31735;DHT22;18313;48.518;9.124;2022-09-01T03:21:39;13.60;99.90
31735;DHT22;18313;48.518;9.124;2022-09-01T03:24:13;13.70;99.90
31735;DHT22;18313;48.518;9.124;2022-09-01T03:26:42;13.70;99.90
31735;DHT22;18313;48.518;9.124;2022-09-01T03:29:10;13.70;99.90
31735;DHT22;18313;48.518;9.124;2022-09-01T03:31:37;13.70;99.90
31735;DHT22;18313;48.518;9.124;2022-09-01T03:34:05;13.60;99.90
31735;DHT22;18313;48.518;9.124;2022-09-01T03:36:32;13.50;99.90
31735;DHT22;18313;48.518;9.124;2022-09-01T03:39:00;13.50;99.90
31735;DHT22;18313;48.518;9.124;2022-09-01T03:41:28;13.40;99.90
31735;DHT22;18313;48.518;9.124;2022-09-01T03:43:57;13.50;99.90
31735;DHT22;18313;48.518;9.124;2022-09-01T03:46:26;13.50;99.90
31735;DHT22;18313;48.518;9.124;2022-09-01T03:49:03;13.50;99.90
31735;DHT22;18313;48.518;9.124;2022-09-01T03:51:33;13.50;99.90
31735;DHT22;18313;48.518;9.124;2022-09-01T03:54:00;13.60;99.90
31735;DHT22;18313;48.518;9.124;2022-09-01T03:56:28;13.60;99.90
31735;DHT22;18313;48.518;9.124;2022-09-01T03:58:57;13.60;99.90
31735;DHT22;18313;48.518;9.124;2022-09-01T04:01:27;13.80;99.90
31735;DHT22;18313;48.518;9.124;2022-09-01T04:03:55;13.80;99.90
31735;DHT22;18313;48.518;9.124;2022-09-01T04:06:23;13.90;99.90
31735;DHT22;18313;48.518;9.124;2022-09-01T04:08:51;13.80;99.90
31735;DHT22;18313;48.518;9.124;2022-09-01T04:11:29;13.80;99.90
31735;DHT22;18313;48.518;9.124;2022-09-01T04:13:59;13.90;99.90
31735;DHT22;18313;48.518;9.124;2022-09-01T04:16:29;14.00;99.90
31735;DHT22;18313;48.518;9.124;2022-09-01T04:19:19;13.90;99.90
31735;DHT22;18313;48.518;9.124;2022-09-01T04:21:48;14.00;99.90
31735;DHT22;18313;48.518;9.124;2022-09-01T04:24:21;14.10;99.90
31735;DHT22;18313;48.518;9.124;2022-09-01T04:26:51;14.00;99.90
31735;DHT22;18313;48.518;9.124;2022-09-01T04:29:21;14.00;99.90
31735;DHT22;18313;48.518;9.124;2022-09-01T04:32:06;14.00;99.90
31735;DHT22;18313;48.518;9.124;2022-09-01T04:34:36;14.20;99.90
31735;DHT22;18313;48.518;9.124;2022-09-01T04:37:22;14.20;99.90
31735;DHT22;18313;48.518;9.124;2022-09-01T04:39:51;14.10;99.90
31735;DHT22;18313;48.518;9.124;2022-09-01T04:42:25;14.10;99.90
31735;DHT22;18313;48.518;9.124;2022-09-01T04:44:53;14.00;99.90
31735;DHT22;18313;48.518;9.124;2022-09-01T04:47:23;14.00;99.90
31735;DHT22;18313;48.518;9.124;2022-09-01T04:50:03;14.00;99.90
31735;DHT22;18313;48.518;9.124;2022-09-01T04:52:40;14.00;99.90
31735;DHT22;18313;48.518;9.124;2022-09-01T04:55:10;14.00;99.90
31735;DHT22;18313;48.518;9.124;2022-09-01T04:57:47;14.00;99.90
31735;DHT22;18313;48.518;9.124;2022-09-01T05:00:18;14.00;99.90
31735;DHT22;18313;48.518;9.124;2022-09-01T05:02:52;14.00;99.90
31735;DHT22;18313;48.518;9.124;2022-09-01T05:05:21;13.80;99.90
31735;DHT22;18313;48.518;9.124;2022-09-01T05:07:49;13.80;99.90
31735;DHT22;18313;48.518;9.124;2022-09-01T05:10:20;13.90;99.90
31735;DHT22;18313;48.518;9.124;2022-09-01T05:12:48;14.00;99.90
31735;DHT22;18313;48.518;9.124;2022-09-01T05:15:15;13.90;99.90
31735;DHT22;18313;48.518;9.124;2022-09-01T05:17:42;13.90;99.90
31735;DHT22;18313;48.518;9.124;2022-09-01T05:20:10;13.90;99.90
31735;DHT22;18313;48.518;9.124;2022-09-01T05:22:37;13.90;99.90
31735;DHT22;18313;48.518;9.124;2022-09-01T05:25:08;13.90;99.90
31735;DHT22;18313;48.518;9.124;2022-09-01T05:27:41;14.00;99.90
31735;DHT22;18313;48.518;9.124;2022-09-01T05:30:16;14.00;99.90
31735;DHT22;18313;48.518;9.124;2022-09-01T05:32:44;13.90;99.90
31735;DHT22;18313;48.518;9.124;2022-09-01T05:35:14;13.90;99.90
31735;DHT22;18313;48.518;9.124;2022-09-01T05:37:42;14.00;99.90
31735;DHT22;18313;48.518;9.124;2022-09-01T05:40:09;14.00;99.90
31735;DHT22;18313;48.518;9.124;2022-09-01T05:42:42;13.90;99.90
31735;DHT22;18313;48.518;9.124;2022-09-01T05:45:10;13.90;99.90
31735;DHT22;18313;48.518;9.124;2022-09-01T05:47:38;13.90;99.90
31735;DHT22;18313;48.518;9.124;2022-09-01T05:50:07;14.00;99.90
31735;DHT22;18313;48.518;9.124;2022-09-01T05:52:40;13.90;99.90
31735;DHT22;18313;48.518;9.124;2022-09-01T05:55:10;13.90;99.90
31735;DHT22;18313;48.518;9.124;2022-09-01T05:57:37;14.00;99.90
31735;DHT22;18313;48.518;9.124;2022-09-01T06:00:07;14.00;99.90
31735;DHT22;18313;48.518;9.124;2022-09-01T07:27:33;16.40;99.90
31735;DHT22;18313;48.518;9.124;2022-09-01T07:30:07;16.50;99.90
31735;DHT22;18313;48.518;9.124;2022-09-01T07:32:36;16.60;99.90
31735;DHT22;18313;48.518;9.124;2022-09-01T07:35:18;16.70;99.90
31735;DHT22;18313;48.518;9.124;2022-09-01T07:37:47;16.70;99.90
31735;DHT22;18313;48.518;9.124;2022-09-01T07:40:36;16.70;99.90
31735;DHT22;18313;48.518;9.124;2022-09-01T07:43:27;16.60;99.90
31735;DHT22;18313;48.518;9.124;2022-09-01T07:46:02;16.70;99.90
31735;DHT22;18313;48.518;9.124;2022-09-01T07:48:54;16.90;99.90
31735;DHT22;18313;48.518;9.124;2022-09-01T07:51:42;17.00;99.90
31735;DHT22;18313;48.518;9.124;2022-09-01T07:54:09;17.10;99.90
31735;DHT22;18313;48.518;9.124;2022-09-01T07:56:39;17.20;99.90
31735;DHT22;18313;48.518;9.124;2022-09-01T07:59:06;17.40;99.90
31735;DHT22;18313;48.518;9.124;2022-09-01T08:01:41;17.50;99.90
31735;DHT22;18313;48.518;9.124;2022-09-01T08:04:08;17.60;99.90
31735;DHT22;18313;48.518;9.124;2022-09-01T08:06:35;17.80;99.90
31735;DHT22;18313;48.518;9.124;2022-09-01T08:09:05;17.90;99.90
31735;DHT22;18313;48.518;9.124;2022-09-01T08:11:50;17.90;99.90
31735;DHT22;18313;48.518;9.124;2022-09-01T08:14:28;18.00;99.90
31735;DHT22;18313;48.518;9.124;2022-09-01T08:17:00;18.10;99.90
31735;DHT22;18313;48.518;9.124;2022-09-01T08:19:43;18.20;99.90
31735;DHT22;18313;48.518;9.124;2022-09-01T08:22:10;18.20;99.90
31735;DHT22;18313;48.518;9.124;2022-09-01T08:24:36;18.30;99.90
31735;DHT22;18313;48.518;9.124;2022-09-01T08:27:03;18.40;99.90
31735;DHT22;18313;48.518;9.124;2022-09-01T08:29:31;18.50;99.90
31735;DHT22;18313;48.518;9.124;2022-09-01T08:31:58;18.70;99.90
31735;DHT22;18313;48.518;9.124;2022-09-01T08:34:25;19.00;99.90
31735;DHT22;18313;48.518;9.124;2022-09-01T08:36:52;19.20;99.90
31735;DHT22;18313;48.518;9.124;2022-09-01T08:39:19;19.30;99.90
31735;DHT22;18313;48.518;9.124;2022-09-01T08:42:15;19.50;99.90
31735;DHT22;18313;48.518;9.124;2022-09-01T08:44:57;19.60;99.90
31735;DHT22;18313;48.518;9.124;2022-09-01T08:47:28;19.70;99.90
31735;DHT22;18313;48.518;9.124;2022-09-01T08:50:20;19.90;99.90
31735;DHT22;18313;48.518;9.124;2022-09-01T08:53:04;20.10;99.90
31735;DHT22;18313;48.518;9.124;2022-09-01T08:55:42;20.40;99.90
31735;DHT22;18313;48.518;9.124;2022-09-01T08:58:12;20.60;99.90
31735;DHT22;18313;48.518;9.124;2022-09-01T09:00:46;20.70;99.90
31735;DHT22;18313;48.518;9.124;2022-09-01T09:09:03;21.10;99.90
31735;DHT22;18313;48.518;9.124;2022-09-01T09:11:59;21.10;99.90
31735;DHT22;18313;48.518;9.124;2022-09-01T09:15:00;21.10;99.90
31735;DHT22;18313;48.518;9.124;2022-09-01T09:17:37;21.20;99.90
31735;DHT22;18313;48.518;9.124;2022-09-01T09:20:06;21.30;99.90
31735;DHT22;18313;48.518;9.124;2022-09-01T09:22:34;21.60;99.90
31735;DHT22;18313;48.518;9.124;2022-09-01T09:25:15;22.00;99.90
31735;DHT22;18313;48.518;9.124;2022-09-01T09:27:47;22.00;99.90
31735;DHT22;18313;48.518;9.124;2022-09-01T09:30:28;22.00;99.90
31735;DHT22;18313;48.518;9.124;2022-09-01T09:33:03;22.00;99.90
31735;DHT22;18313;48.518;9.124;2022-09-01T09:35:51;22.00;99.90
31735;DHT22;18313;48.518;9.124;2022-09-01T09:38:22;21.90;99.90
31735;DHT22;18313;48.518;9.124;2022-09-01T09:43:59;21.50;99.90
31735;DHT22;18313;48.518;9.124;2022-09-01T09:46:41;21.60;99.90
31735;DHT22;18313;48.518;9.124;2022-09-01T09:49:21;21.90;99.90
31735;DHT22;18313;48.518;9.124;2022-09-01T09:52:12;22.10;99.90
31735;DHT22;18313;48.518;9.124;2022-09-01T09:57:28;22.80;99.90
31735;DHT22;18313;48.518;9.124;2022-09-01T10:00:22;23.00;99.40
31735;DHT22;18313;48.518;9.124;2022-09-01T10:03:04;23.10;98.90
31735;DHT22;18313;48.518;9.124;2022-09-01T10:05:41;23.30;99.00
31735;DHT22;18313;48.518;9.124;2022-09-01T10:08:12;23.30;98.30
31735;DHT22;18313;48.518;9.124;2022-09-01T10:10:49;23.60;98.80
31735;DHT22;18313;48.518;9.124;2022-09-01T10:13:25;23.70;97.50
31735;DHT22;18313;48.518;9.124;2022-09-01T10:16:21;23.80;97.10
31735;DHT22;18313;48.518;9.124;2022-09-01T10:18:54;24.00;97.30
31735;DHT22;18313;48.518;9.124;2022-09-01T10:21:37;24.40;97.20
31735;DHT22;18313;48.518;9.124;2022-09-01T10:26:50;23.80;97.00
31735;DHT22;18313;48.518;9.124;2022-09-01T10:29:30;23.20;97.90
31735;DHT22;18313;48.518;9.124;2022-09-01T10:32:31;23.00;97.80
31735;DHT22;18313;48.518;9.124;2022-09-01T10:35:13;23.00;97.90
31735;DHT22;18313;48.518;9.124;2022-09-01T10:37:44;23.00;97.50
31735;DHT22;18313;48.518;9.124;2022-09-01T10:43:28;23.20;97.80
31735;DHT22;18313;48.518;9.124;2022-09-01T10:49:17;23.30;97.20
31735;DHT22;18313;48.518;9.124;2022-09-01T10:51:50;23.60;96.30
31735;DHT22;18313;48.518;9.124;2022-09-01T11:08:58;23.90;96.30
31735;DHT22;18313;48.518;9.124;2022-09-01T11:11:46;24.00;95.60
31735;DHT22;18313;48.518;9.124;2022-09-01T11:14:20;23.90;96.40
31735;DHT22;18313;48.518;9.124;2022-09-01T11:17:12;23.70;96.70
31735;DHT22;18313;48.518;9.124;2022-09-01T11:19:53;23.90;96.40
31735;DHT22;18313;48.518;9.124;2022-09-01T11:25:13;23.90;96.90
31735;DHT22;18313;48.518;9.124;2022-09-01T11:31:12;24.40;96.50
31735;DHT22;18313;48.518;9.124;2022-09-01T11:36:30;24.20;96.70
31735;DHT22;18313;48.518;9.124;2022-09-01T11:38:58;24.10;95.80
31735;DHT22;18313;48.518;9.124;2022-09-01T11:41:51;24.10;95.60
31735;DHT22;18313;48.518;9.124;2022-09-01T11:47:05;24.00;96.10
31735;DHT22;18313;48.518;9.124;2022-09-01T11:49:47;24.00;95.90
31735;DHT22;18313;48.518;9.124;2022-09-01T11:52:16;23.90;95.90
31735;DHT22;18313;48.518;9.124;2022-09-01T11:54:44;23.90;96.50
31735;DHT22;18313;48.518;9.124;2022-09-01T11:59:53;24.00;96.00
31735;DHT22;18313;48.518;9.124;2022-09-01T12:02:26;24.20;94.60
31735;DHT22;18313;48.518;9.124;2022-09-01T12:04:54;24.10;94.90
31735;DHT22;18313;48.518;9.124;2022-09-01T12:07:40;24.30;94.50
31735;DHT22;18313;48.518;9.124;2022-09-01T12:13:10;24.10;94.40
31735;DHT22;18313;48.518;9.124;2022-09-01T12:15:39;23.80;95.50
31735;DHT22;18313;48.518;9.124;2022-09-01T12:18:31;24.10;95.20
31735;DHT22;18313;48.518;9.124;2022-09-01T12:21:01;23.90;95.50
31735;DHT22;18313;48.518;9.124;2022-09-01T12:23:36;24.20;94.90
31735;DHT22;18313;48.518;9.124;2022-09-01T12:26:11;24.50;94.90
31735;DHT22;18313;48.518;9.124;2022-09-01T12:28:38;24.90;94.00
31735;DHT22;18313;48.518;9.124;2022-09-01T12:31:17;24.90;94.30
31735;DHT22;18313;48.518;9.124;2022-09-01T12:33:45;25.10;94.00
31735;DHT22;18313;48.518;9.124;2022-09-01T12:36:21;25.20;93.30
31735;DHT22;18313;48.518;9.124;2022-09-01T12:38:48;25.10;93.10
31735;DHT22;18313;48.518;9.124;2022-09-01T12:41:32;25.00;92.80
31735;DHT22;18313;48.518;9.124;2022-09-01T12:45:02;25.20;92.90
31735;DHT22;18313;48.518;9.124;2022-09-01T12:47:11;25.40;92.20
31735;DHT22;18313;48.518;9.124;2022-09-01T12:49:42;25.50;93.20
31735;DHT22;18313;48.518;9.124;2022-09-01T12:54:50;26.30;93.30
31735;DHT22;18313;48.518;9.124;2022-09-01T12:57:29;26.40;90.80
31735;DHT22;18313;48.518;9.124;2022-09-01T13:02:48;26.30;92.50
31735;DHT22;18313;48.518;9.124;2022-09-01T13:05:48;26.40;92.50
31735;DHT22;18313;48.518;9.124;2022-09-01T13:08:23;26.50;91.70
31735;DHT22;18313;48.518;9.124;2022-09-01T13:11:05;26.10;92.10
31735;DHT22;18313;48.518;9.124;2022-09-01T13:13:32;25.70;92.70
31735;DHT22;18313;48.518;9.124;2022-09-01T13:16:02;25.20;93.50
31735;DHT22;18313;48.518;9.124;2022-09-01T13:18:40;24.70;93.30
31735;DHT22;18313;48.518;9.124;2022-09-01T13:21:27;24.60;94.20
31735;DHT22;18313;48.518;9.124;2022-09-01T13:23:55;24.70;93.60
31735;DHT22;18313;48.518;9.124;2022-09-01T13:26:22;24.40;93.60
31735;DHT22;18313;48.518;9.124;2022-09-01T13:28:49;24.40;93.50
31735;DHT22;18313;48.518;9.124;2022-09-01T13:31:17;24.40;92.90
31735;DHT22;18313;48.518;9.124;2022-09-01T13:34:01;24.40;93.60
31735;DHT22;18313;48.518;9.124;2022-09-01T13:36:47;24.50;93.50
31735;DHT22;18313;48.518;9.124;2022-09-01T13:39:19;24.30;93.50
31735;DHT22;18313;48.518;9.124;2022-09-01T13:41:47;24.30;93.40
31735;DHT22;18313;48.518;9.124;2022-09-01T13:44:14;24.20;94.00
31735;DHT22;18313;48.518;9.124;2022-09-01T13:46:43;24.20;94.20
31735;DHT22;18313;48.518;9.124;2022-09-01T13:49:30;24.20;94.20
31735;DHT22;18313;48.518;9.124;2022-09-01T13:52:18;24.10;94.10
31735;DHT22;18313;48.518;9.124;2022-09-01T13:54:45;24.10;94.40
31735;DHT22;18313;48.518;9.124;2022-09-01T13:57:13;24.20;94.10
31735;DHT22;18313;48.518;9.124;2022-09-01T13:59:42;24.20;94.40
31735;DHT22;18313;48.518;9.124;2022-09-01T14:02:09;24.50;94.30
31735;DHT22;18313;48.518;9.124;2022-09-01T14:04:36;24.70;95.10
31735;DHT22;18313;48.518;9.124;2022-09-01T14:07:03;24.60;93.90
31735;DHT22;18313;48.518;9.124;2022-09-01T14:09:30;24.70;93.70
31735;DHT22;18313;48.518;9.124;2022-09-01T14:11:57;24.90;94.00
31735;DHT22;18313;48.518;9.124;2022-09-01T14:14:24;25.10;92.80
31735;DHT22;18313;48.518;9.124;2022-09-01T14:16:52;24.90;93.10
31735;DHT22;18313;48.518;9.124;2022-09-01T14:19:21;24.90;93.30
31735;DHT22;18313;48.518;9.124;2022-09-01T14:21:50;24.90;93.60
31735;DHT22;18313;48.518;9.124;2022-09-01T14:24:16;25.00;93.50
31735;DHT22;18313;48.518;9.124;2022-09-01T14:26:46;25.10;93.80
31735;DHT22;18313;48.518;9.124;2022-09-01T14:29:13;25.20;93.00
31735;DHT22;18313;48.518;9.124;2022-09-01T14:31:39;25.50;91.70
31735;DHT22;18313;48.518;9.124;2022-09-01T14:34:09;25.50;91.50
31735;DHT22;18313;48.518;9.124;2022-09-01T14:36:38;25.40;91.80
31735;DHT22;18313;48.518;9.124;2022-09-01T14:39:04;25.60;91.60
31735;DHT22;18313;48.518;9.124;2022-09-01T14:41:33;25.30;91.70
31735;DHT22;18313;48.518;9.124;2022-09-01T14:43:59;25.40;91.90
31735;DHT22;18313;48.518;9.124;2022-09-01T14:46:30;25.60;92.90
31735;DHT22;18313;48.518;9.124;2022-09-01T14:49:01;25.70;92.80
31735;DHT22;18313;48.518;9.124;2022-09-01T14:51:30;25.60;93.40
31735;DHT22;18313;48.518;9.124;2022-09-01T14:54:17;25.70;93.20
31735;DHT22;18313;48.518;9.124;2022-09-01T14:56:44;25.50;93.00
31735;DHT22;18313;48.518;9.124;2022-09-01T14:59:33;25.30;93.40
31735;DHT22;18313;48.518;9.124;2022-09-01T15:02:00;25.30;93.70
31735;DHT22;18313;48.518;9.124;2022-09-01T15:04:27;25.10;93.30
31735;DHT22;18313;48.518;9.124;2022-09-01T15:06:55;24.90;94.00
31735;DHT22;18313;48.518;9.124;2022-09-01T15:09:22;25.00;94.00
31735;DHT22;18313;48.518;9.124;2022-09-01T15:11:49;25.30;93.40
31735;DHT22;18313;48.518;9.124;2022-09-01T15:14:15;25.40;92.00
31735;DHT22;18313;48.518;9.124;2022-09-01T15:16:42;25.50;93.10
31735;DHT22;18313;48.518;9.124;2022-09-01T15:19:11;25.50;93.20
31735;DHT22;18313;48.518;9.124;2022-09-01T15:21:40;25.80;93.70
31735;DHT22;18313;48.518;9.124;2022-09-01T15:24:09;25.90;92.40
31735;DHT22;18313;48.518;9.124;2022-09-01T15:26:37;26.00;92.00
31735;DHT22;18313;48.518;9.124;2022-09-01T15:29:06;25.80;92.30
31735;DHT22;18313;48.518;9.124;2022-09-01T15:31:35;25.80;92.10
31735;DHT22;18313;48.518;9.124;2022-09-01T15:34:03;25.80;92.00
31735;DHT22;18313;48.518;9.124;2022-09-01T15:36:32;25.50;91.90
31735;DHT22;18313;48.518;9.124;2022-09-01T15:39:00;25.50;91.60
31735;DHT22;18313;48.518;9.124;2022-09-01T15:41:29;25.50;93.20
31735;DHT22;18313;48.518;9.124;2022-09-01T15:43:57;25.80;91.80
31735;DHT22;18313;48.518;9.124;2022-09-01T15:46:24;26.20;93.00
31735;DHT22;18313;48.518;9.124;2022-09-01T15:49:00;26.60;92.50
31735;DHT22;18313;48.518;9.124;2022-09-01T15:51:28;26.90;91.90
31735;DHT22;18313;48.518;9.124;2022-09-01T15:53:59;26.90;90.90
31735;DHT22;18313;48.518;9.124;2022-09-01T15:56:26;26.40;90.60
31735;DHT22;18313;48.518;9.124;2022-09-01T15:58:53;25.90;91.10
31735;DHT22;18313;48.518;9.124;2022-09-01T16:01:31;25.40;91.40
31735;DHT22;18313;48.518;9.124;2022-09-01T16:03:58;25.10;92.50
31735;DHT22;18313;48.518;9.124;2022-09-01T16:06:25;25.10;92.40
31735;DHT22;18313;48.518;9.124;2022-09-01T16:08:52;24.90;92.40
31735;DHT22;18313;48.518;9.124;2022-09-01T16:11:24;24.80;91.50
31735;DHT22;18313;48.518;9.124;2022-09-01T16:13:52;24.70;92.20
31735;DHT22;18313;48.518;9.124;2022-09-01T16:24:53;25.10;91.90
31735;DHT22;18313;48.518;9.124;2022-09-01T16:27:26;24.60;91.80
31735;DHT22;18313;48.518;9.124;2022-09-01T16:30:02;24.40;92.60
31735;DHT22;18313;48.518;9.124;2022-09-01T16:32:29;24.10;92.40
31735;DHT22;18313;48.518;9.124;2022-09-01T16:35:00;24.00;92.80
31735;DHT22;18313;48.518;9.124;2022-09-01T16:37:41;24.20;93.10
31735;DHT22;18313;48.518;9.124;2022-09-01T16:43:36;24.40;92.90
31735;DHT22;18313;48.518;9.124;2022-09-01T16:48:46;23.90;92.70
31735;DHT22;18313;48.518;9.124;2022-09-01T16:51:35;23.70;92.50
31735;DHT22;18313;48.518;9.124;2022-09-01T16:56:53;23.50;93.30
31735;DHT22;18313;48.518;9.124;2022-09-01T17:02:31;23.40;93.60
31735;DHT22;18313;48.518;9.124;2022-09-01T17:05:23;23.50;93.50
31735;DHT22;18313;48.518;9.124;2022-09-01T17:08:08;23.60;93.60
31735;DHT22;18313;48.518;9.124;2022-09-01T17:10:42;23.60;93.20
31735;DHT22;18313;48.518;9.124;2022-09-01T17:13:20;23.40;93.40
31735;DHT22;18313;48.518;9.124;2022-09-01T17:15:56;23.40;93.90
31735;DHT22;18313;48.518;9.124;2022-09-01T17:18:45;23.50;94.00
31735;DHT22;18313;48.518;9.124;2022-09-01T17:21:17;23.50;94.00
31735;DHT22;18313;48.518;9.124;2022-09-01T17:23:59;23.50;94.20
31735;DHT22;18313;48.518;9.124;2022-09-01T17:26:30;23.40;94.20
31735;DHT22;18313;48.518;9.124;2022-09-01T17:29:17;23.20;94.70
31735;DHT22;18313;48.518;9.124;2022-09-01T17:43:15;22.00;95.20
31735;DHT22;18313;48.518;9.124;2022-09-01T17:45:57;21.90;95.20
31735;DHT22;18313;48.518;9.124;2022-09-01T17:48:45;21.90;94.80
31735;DHT22;18313;48.518;9.124;2022-09-01T17:59:25;21.70;95.50
31735;DHT22;18313;48.518;9.124;2022-09-01T18:02:05;21.60;95.80
31735;DHT22;18313;48.518;9.124;2022-09-01T18:05:13;21.40;96.00
31735;DHT22;18313;48.518;9.124;2022-09-01T18:10:46;21.10;96.40
31735;DHT22;18313;48.518;9.124;2022-09-01T18:13:22;21.00;96.70
31735;DHT22;18313;48.518;9.124;2022-09-01T18:16:17;20.80;96.90
31735;DHT22;18313;48.518;9.124;2022-09-01T18:18:47;20.70;97.30
31735;DHT22;18313;48.518;9.124;2022-09-01T18:21:20;20.60;97.30
31735;DHT22;18313;48.518;9.124;2022-09-01T18:23:57;20.50;97.70
31735;DHT22;18313;48.518;9.124;2022-09-01T18:26:26;20.30;97.90
31735;DHT22;18313;48.518;9.124;2022-09-01T18:28:59;20.20;97.90
31735;DHT22;18313;48.518;9.124;2022-09-01T18:31:31;20.20;97.90
31735;DHT22;18313;48.518;9.124;2022-09-01T18:34:18;20.20;98.10
31735;DHT22;18313;48.518;9.124;2022-09-01T18:37:05;20.10;98.10
31735;DHT22;18313;48.518;9.124;2022-09-01T18:43:02;20.00;98.50
31735;DHT22;18313;48.518;9.124;2022-09-01T18:45:48;19.90;98.70
31735;DHT22;18313;48.518;9.124;2022-09-01T18:49:01;19.80;98.80
31735;DHT22;18313;48.518;9.124;2022-09-01T18:57:05;19.80;98.90
31735;DHT22;18313;48.518;9.124;2022-09-01T18:59:37;19.70;99.10
31735;DHT22;18313;48.518;9.124;2022-09-01T19:02:32;19.60;99.20
31735;DHT22;18313;48.518;9.124;2022-09-01T19:13:47;19.40;99.80
31735;DHT22;18313;48.518;9.124;2022-09-01T19:16:29;19.30;99.70
31735;DHT22;18313;48.518;9.124;2022-09-01T19:19:37;19.20;99.90
31735;DHT22;18313;48.518;9.124;2022-09-01T19:22:07;19.30;99.90
31735;DHT22;18313;48.518;9.124;2022-09-01T19:24:55;19.10;99.90
31735;DHT22;18313;48.518;9.124;2022-09-01T19:27:55;19.20;99.90
31735;DHT22;18313;48.518;9.124;2022-09-01T19:30:22;19.10;99.90
31735;DHT22;18313;48.518;9.124;2022-09-01T19:32:49;19.10;99.90
31735;DHT22;18313;48.518;9.124;2022-09-01T19:35:17;19.00;99.90